Terminal Aerodrome Forecast
Issued by NWS St Louis, MO

Home | Current Version | Previous Version | Graphics & Text | Print | Product List | Glossary On
Versions: 1 2 3 4 5 6 7 8 9 10 11 12 13 14 15 16 17 18 19 20 21 22 23 24 25 26 27 28 29
250
FTUS43 KLSX 202300
TAFSTL
TAF
KSTL 202337Z 2100/2206 01009KT 6SM BR OVC008
      TEMPO 2100/2102 3SM -DZ BR
     FM210400 34007KT P6SM OVC007
     FM211400 32007KT P6SM BKN020
     FM211800 32010KT P6SM SCT050
     FM220100 25006KT P6SM SCT250=

USA.gov is the U.S. government's official web portal to all federal, state and local government web resources and services.